KFNL/FNL METAR and TAF weather

Enter ICAO airport designator
Station Type Date Time Source
KFNL METAR 2019/05/21 19:56 UTC NOAA

KFNL 211956Z AUTO 03023G27KT 10SM OVC070 05/00 A2958 RMK AO2 PK WND 03027/1955 SLPNO T00500000


Station Type Date Time Source
KFNL Decoded METAR 2019/05/21 19:56 UTC NOAA

Fort Collins/Loveland, Fort Collins-Loveland Municipal Airport, CO, United States (KFNL) 40-27N 105-01W
May 21, 2019 - 03:56 PM EDT / 2019.05.21 1956 UTC
Wind: from the NNE (030 degrees) at 26 MPH (23 KT) gusting to 31 MPH (27 KT):0
Visibility: 10 mile(s):0
Sky conditions: overcast
Temperature: 41.0 F (5.0 C)
Dew Point: 32.0 F (0.0 C)
Relative Humidity: 70%
Pressure (altimeter): 29.58 in. Hg (1001 hPa)
ob: KFNL 211956Z AUTO 03023G27KT 10SM OVC070 05/00 A2958 RMK AO2 PK WND 03027/1955 SLPNO T00500000
cycle: 20

Station Type Date Time Source
KFNL TAF UTC NOAA

Error!

Example: see airport list